This is the latest recevied weather packets stored in our database for station/object DB0TGO-13. If no packets are shown the sender has not sent any weather packets the latest 10 day(s).
| Time | Temp. | Humidity | Pressure | Rain* | Wind** | Luminosity | Snow |
|---|---|---|---|---|---|---|---|
| 1778090403 | 11.67° C | 86% | 1001.5 hPa | - | - | - | - |
| 1778089502 | 11.67° C | 84% | 1001.5 hPa | - | - | - | - |
| 1778088602 | 11.67° C | 84% | 1001.5 hPa | - | - | - | - |
| 1778087702 | 12.22° C | 82% | 1001.3 hPa | - | - | - | - |
| 1778086803 | 12.22° C | 82% | 1001.3 hPa | - | - | - | - |
| 1778085903 | 12.22° C | 86% | 1001.7 hPa | - | - | - | - |
| 1778085002 | 12.22° C | 86% | 1001.7 hPa | - | - | - | - |
| 1778084102 | 12.22° C | 85% | 1001.7 hPa | - | - | - | - |
| 1778083203 | 12.22° C | 85% | 1001.7 hPa | - | - | - | - |
| 1778082302 | 12.22° C | 85% | 1001.5 hPa | - | - | - | - |
| 1778081403 | 12.22° C | 85% | 1001.5 hPa | - | - | - | - |
| 1778080503 | 11.67° C | 88% | 1001.5 hPa | - | - | - | - |
| 1778079602 | 11.67° C | 88% | 1001.5 hPa | - | - | - | - |
| 1778078702 | 11.67° C | 88% | 1001.5 hPa | - | - | - | - |
| 1778077803 | 11.67° C | 88% | 1001.5 hPa | - | - | - | - |
| 1778076902 | 11.67° C | 86% | 1001.4 hPa | - | - | - | - |
| 1778076002 | 11.67° C | 86% | 1001.4 hPa | - | - | - | - |
| 1778075102 | 12.22° C | 87% | 1001.3 hPa | - | - | - | - |
| 1778074202 | 12.22° C | 87% | 1001.3 hPa | - | - | - | - |
| 1778073302 | 11.67° C | 88% | 1001.3 hPa | - | - | - | - |
| 1778072403 | 11.67° C | 88% | 1001.3 hPa | - | - | - | - |
| 1778071502 | 11.67° C | 88% | 1001.1 hPa | - | - | - | - |
| 1778070602 | 11.67° C | 88% | 1001.1 hPa | - | - | - | - |
| 1778069702 | 12.22° C | 88% | 1000.7 hPa | - | - | - | - |
| 1778068803 | 12.22° C | 88% | 1000.7 hPa | - | - | - | - |
* Rain since midnight (hover to see other rain measurements)
** Current wind speed in m/s (hover to see current wind gust speed)